SBDNSBMG

Guest
Details From SBDN - Presidente Prudente
To SBMG - REGIONAL DE MARINGA SILVIO NAME JUNIOR
Flight Number -
Tags generated
Created
Modified
Stats Distance 85 nm / 157 km
Max Altitude 0 ft / 0 m
Waypoints 3
Social Downloads 0
Likes 0
Share VATSIM

Download

Looking for another format? Having issues loading an existing format? Contact us
Advertisement - Login to hide

Notes

Basic altitude profile: - Ascent Rate: 2500ft/min - Ascent Speed: 250kts - Cruise Altitude: 35000ft - Cruise Speed: 420kts - Descent Rate: 1500ft/min - Descent Speed: 250kts Options: - Use NATs: yes - Use PACOTS: yes - Use low airways: yes - Use high airways: yes

Route

SBDN PRR SBMG

ID Type Via Altitude Latitude Longitude Leg Dist Tot Dist Heading (true) Name
O SBDN APT - 0 ft / 0 m -22.17504˚ -51.42464˚ - 0 nm - Presidente Prudente
PRR VOR - 0 ft / 0 m -22.17306˚ -51.42635˚ 0 nm 0 nm 321° / 321° PRUDENTE VOR-DME
O SBMG APT - 0 ft / 0 m -23.47611˚ -52.01640˚ 84 nm 84 nm 203° / 203° REGIONAL DE MARINGA SILVIO NAME JUNIOR

Altitude Profile

Advertisement - Login to hide

SBDN

Details ICAO SBDN (PPB)
Name Presidente Prudente
Region Brazil
Timezone America/Sao_Paulo (UTC-2.0)
Stats Elevation 1,476 ft / 450 m (AMSL)
Location -22.175042° -51.424639°
Runways 1
Magnetic Variation 19.161° W

METAR

SBDN 122200Z 11008KT CAVOK 29/15 Q1011

Decode

TAF

TAF SBDN 121400Z 1218/1306 11012KT CAVOK TX32/1218Z TN18/1305Z RMK PEB

Decode

Departure Runways

ID Width Length Bearing (true) Bearing (mag) Surface Threshold Offset Overrun Length
12 115 ft / 35 m 6,929 ft / 2,112 m 98.36° 117.52° Asphalt 0 ft / 0 m 0 ft / 0 m
30 115 ft / 35 m 6,929 ft / 2,112 m 278.35° 297.51° Asphalt 0 ft / 0 m 0 ft / 0 m

SBMG

Details ICAO SBMG (MGF)
Name REGIONAL DE MARINGA SILVIO NAME JUNIOR
Region Brazil
Timezone America/Sao_Paulo (UTC-2.0)
Stats Elevation 1,788 ft / 545 m (AMSL)
Location -23.476112° -52.016404°
Runways 1
Magnetic Variation 18.515° W

METAR

SBMG 122300Z 07009KT 9999 FEW045 27/18 Q1012

Decode

TAF

Not found

Destination Runways

ID Width Length Bearing (true) Bearing (mag) Surface Threshold Offset Overrun Length
09 147 ft / 45 m 6,893 ft / 2,101 m 77.96° 96.47° Asphalt 0 ft / 0 m 195 ft / 59 m
27 147 ft / 45 m 6,893 ft / 2,101 m 257.95° 276.46° Asphalt 0 ft / 0 m 195 ft / 59 m

Popular Alternatives